Time;durP1;ratioP1;P1;durP2;ratioP2;P2;SDS_P1;SDS_P2;PMS_P1;PMS_P2;Temp;Humidity;BMP_temperature;BMP_pressure;BME280_temperature;BME280_humidity;BME280_pressure;Samples;Min_cycle;Max_cycle;Signal;HPM_P1;HPM_P2
2023/09/21 00:00:37;;;;;;;15.30;8.80;;;;;;;23.61;94.64;100934.79;106092;1256;61237;-87
2023/09/21 00:03:06;;;;;;;18.90;8.40;;;;;;;23.57;94.75;100933.64;106004;1256;74482;-87
2023/09/21 00:05:35;;;;;;;14.90;9.10;;;;;;;23.51;95.04;100935.98;106140;1257;68736;-87
2023/09/21 00:08:04;;;;;;;15.60;8.60;;;;;;;23.56;94.46;100939.48;106102;1256;72541;-86
2023/09/21 00:10:32;;;;;;;18.00;8.80;;;;;;;23.47;94.97;100944.56;105952;1256;62074;-87
2023/09/21 00:12:59;;;;;;;18.70;9.00;;;;;;;23.50;95.08;100947.86;105965;1257;61326;-86
2023/09/21 00:15:29;;;;;;;15.40;8.80;;;;;;;23.51;94.42;100943.24;106098;1257;73541;-86
2023/09/21 00:17:57;;;;;;;18.60;9.50;;;;;;;23.47;94.37;100940.10;106088;1256;68551;-87
2023/09/21 00:20:36;;;;;;;19.20;10.20;;;;;;;23.33;95.02;100940.98;106156;1256;70929;-86
2023/09/21 00:23:06;;;;;;;17.90;8.90;;;;;;;23.29;95.04;100940.39;105975;1256;61659;-86
2023/09/21 00:25:34;;;;;;;18.00;9.10;;;;;;;23.24;95.13;100938.09;106015;1260;61204;-87
2023/09/21 00:28:07;;;;;;;15.90;9.30;;;;;;;23.22;95.52;100936.92;106124;1258;74505;-86
2023/09/21 00:30:37;;;;;;;16.70;8.80;;;;;;;23.30;95.13;100938.27;106002;1257;68593;-86
2023/09/21 00:33:08;;;;;;;19.10;8.90;;;;;;;23.42;94.28;100933.27;105987;1257;72583;-86
2023/09/21 00:35:39;;;;;;;15.50;8.60;;;;;;;23.50;93.66;100932.93;105973;1256;61256;-87
2023/09/21 00:38:08;;;;;;;16.70;9.30;;;;;;;23.54;93.16;100939.84;106096;1257;60702;-87
2023/09/21 00:40:38;;;;;;;14.20;8.70;;;;;;;23.50;93.54;100943.92;106205;1256;74675;-86
2023/09/21 00:43:06;;;;;;;14.20;8.90;;;;;;;23.42;94.36;100942.98;106100;1260;68778;-87
2023/09/21 00:45:37;;;;;;;15.30;9.00;;;;;;;23.42;94.68;100939.09;106068;1256;70822;-85
2023/09/21 00:48:08;;;;;;;16.10;8.70;;;;;;;23.47;94.60;100941.30;106065;1256;61342;-85
2023/09/21 00:50:36;;;;;;;21.20;8.50;;;;;;;23.49;94.58;100936.73;106197;1257;61119;-85
2023/09/21 00:53:05;;;;;;;17.20;8.90;;;;;;;23.44;94.74;100936.35;106205;1257;73720;-85
2023/09/21 00:55:32;;;;;;;13.40;8.80;;;;;;;23.43;95.14;100932.56;106089;1256;68855;-87
2023/09/21 00:58:00;;;;;;;15.30;8.50;;;;;;;23.35;95.53;100930.23;106020;1257;72978;-88
2023/09/21 01:00:30;;;;;;;14.90;8.50;;;;;;;23.37;95.28;100930.90;106031;1258;61358;-86
2023/09/21 01:03:00;;;;;;;13.50;8.90;;;;;;;23.32;95.87;100929.32;105965;1256;61353;-85
2023/09/21 01:05:31;;;;;;;16.50;9.10;;;;;;;23.32;95.90;100932.36;106083;1257;74659;-85
2023/09/21 01:08:00;;;;;;;15.20;8.70;;;;;;;23.27;96.42;100935.32;106039;1260;67339;-87
2023/09/21 01:10:28;;;;;;;13.90;8.10;;;;;;;23.23;97.04;100930.96;106017;1260;71279;-86
2023/09/21 01:12:55;;;;;;;13.00;7.70;;;;;;;23.20;97.49;100929.55;106018;1257;61964;-87
2023/09/21 01:15:22;;;;;;;15.70;8.30;;;;;;;23.18;98.13;100927.09;106028;1260;61237;-86
2023/09/21 01:17:49;;;;;;;16.70;9.50;;;;;;;23.20;98.23;100929.45;106027;1256;74665;-87
2023/09/21 01:20:23;;;;;;;14.70;8.90;;;;;;;23.10;98.99;100930.39;106030;1256;68540;-87
2023/09/21 01:23:17;;;;;;;14.70;8.50;;;;;;;23.06;99.66;100929.30;106067;1256;72951;-86
2023/09/21 01:25:50;;;;;;;13.70;8.40;;;;;;;23.08;99.88;100932.77;105941;1260;61257;-87
2023/09/21 01:28:21;;;;;;;16.10;9.40;;;;;;;23.16;99.94;100933.65;106103;1257;61350;-86
2023/09/21 01:30:49;;;;;;;13.80;8.90;;;;;;;23.29;99.18;100937.45;105884;1262;74736;-86
2023/09/21 01:33:16;;;;;;;14.90;9.00;;;;;;;23.36;98.69;100939.80;105992;1259;67188;-87
2023/09/21 01:35:43;;;;;;;14.20;8.20;;;;;;;23.38;98.65;100945.73;105969;1262;71189;-87
2023/09/21 01:38:12;;;;;;;15.50;8.50;;;;;;;23.42;98.39;100946.02;106065;1258;61746;-86
2023/09/21 01:40:40;;;;;;;16.60;9.30;;;;;;;23.49;97.49;100939.93;106100;1256;61360;-87
2023/09/21 01:43:08;;;;;;;13.00;8.90;;;;;;;23.40;98.15;100940.55;106014;1260;74475;-87
2023/09/21 01:45:37;;;;;;;13.10;8.40;;;;;;;23.37;98.75;100943.73;106167;1256;68465;-86
2023/09/21 01:48:08;;;;;;;13.80;8.20;;;;;;;23.23;99.76;100945.64;106174;1259;73019;-86
2023/09/21 01:50:43;;;;;;;18.30;9.60;;;;;;;23.24;100.00;100951.55;106102;1256;61314;-86
2023/09/21 01:53:13;;;;;;;15.90;8.90;;;;;;;23.26;99.99;100949.87;106162;1256;60361;-86
2023/09/21 01:55:40;;;;;;;13.10;8.40;;;;;;;23.24;100.00;100950.52;106004;1260;75166;-87
2023/09/21 01:58:11;;;;;;;21.40;9.40;;;;;;;23.26;100.00;100950.25;106113;1256;68557;-87
2023/09/21 02:00:39;;;;;;;14.80;8.60;;;;;;;23.15;100.00;100951.94;105887;1257;71343;-87
2023/09/21 02:03:09;;;;;;;13.80;8.30;;;;;;;23.14;100.00;100946.72;106012;1260;61286;-87
2023/09/21 02:05:36;;;;;;;17.70;10.30;;;;;;;23.10;100.00;100945.80;106121;1258;61200;-87
2023/09/21 02:08:07;;;;;;;15.60;8.70;;;;;;;23.08;100.00;100943.69;106107;1257;73081;-87
2023/09/21 02:10:35;;;;;;;14.80;8.40;;;;;;;23.12;100.00;100943.25;106000;1257;68702;-88
2023/09/21 02:13:05;;;;;;;13.40;8.40;;;;;;;23.17;100.00;100948.81;106022;1259;71783;-88
2023/09/21 02:15:40;;;;;;;16.20;9.80;;;;;;;23.11;100.00;100948.73;105974;1257;61241;-87
2023/09/21 02:18:07;;;;;;;15.30;8.70;;;;;;;23.16;100.00;100946.95;106067;1258;61150;-87
2023/09/21 02:20:36;;;;;;;14.10;9.20;;;;;;;23.17;100.00;100944.81;106146;1257;74758;-88
2023/09/21 02:23:03;;;;;;;14.10;8.60;;;;;;;23.20;100.00;100946.98;106074;1258;68617;-87
2023/09/21 02:25:39;;;;;;;14.80;9.10;;;;;;;23.24;100.00;100945.09;105990;1259;72656;-86
2023/09/21 02:28:09;;;;;;;17.30;9.30;;;;;;;23.20;100.00;100945.85;106033;1257;61157;-87
2023/09/21 02:30:39;;;;;;;15.20;9.50;;;;;;;23.17;100.00;100945.13;106225;1259;61295;-86
2023/09/21 02:33:09;;;;;;;14.30;8.80;;;;;;;23.14;100.00;100949.21;106014;1257;73362;-87
2023/09/21 02:35:44;;;;;;;15.50;8.20;;;;;;;23.15;100.00;100949.86;106080;1256;68416;-86
2023/09/21 02:38:12;;;;;;;16.70;9.00;;;;;;;22.96;100.00;100950.70;105996;1259;72558;-87
2023/09/21 02:40:39;;;;;;;14.80;9.90;;;;;;;22.85;100.00;100949.34;105963;1259;61148;-86
2023/09/21 02:43:10;;;;;;;15.50;9.50;;;;;;;22.87;100.00;100950.59;106238;1256;60901;-86
2023/09/21 02:45:37;;;;;;;14.10;8.60;;;;;;;22.85;100.00;100955.70;106161;1256;73623;-88
2023/09/21 02:48:05;;;;;;;13.60;8.50;;;;;;;22.73;100.00;100956.13;106195;1257;68495;-88
2023/09/21 02:50:32;;;;;;;16.30;8.40;;;;;;;22.64;100.00;100955.11;106455;1257;72752;-87
2023/09/21 02:53:06;;;;;;;15.60;9.20;;;;;;;22.49;100.00;100956.93;106164;1256;61243;-86
2023/09/21 02:55:34;;;;;;;14.90;8.90;;;;;;;22.37;100.00;100955.09;105951;1257;61269;-88
2023/09/21 02:58:09;;;;;;;13.70;8.60;;;;;;;22.31;100.00;100956.28;105994;1257;74362;-87
2023/09/21 03:00:42;;;;;;;13.10;8.50;;;;;;;22.29;100.00;100953.41;105949;1258;68469;-88
2023/09/21 03:03:13;;;;;;;14.20;8.30;;;;;;;22.29;100.00;100953.48;106121;1256;71162;-88
2023/09/21 03:05:41;;;;;;;13.30;8.70;;;;;;;22.14;100.00;100953.29;106588;1257;61176;-87
2023/09/21 03:08:18;;;;;;;14.90;9.50;;;;;;;22.09;100.00;100950.97;106131;1262;61261;-86
2023/09/21 03:10:49;;;;;;;15.80;8.50;;;;;;;22.00;100.00;100953.91;106035;1256;73148;-87
2023/09/21 03:13:18;;;;;;;15.70;8.60;;;;;;;21.91;100.00;100951.93;105917;1258;68707;-88
2023/09/21 03:15:47;;;;;;;15.90;9.20;;;;;;;21.75;100.00;100956.06;106000;1259;71462;-88
2023/09/21 03:18:15;;;;;;;16.00;8.90;;;;;;;21.67;100.00;100960.70;106047;1262;61420;-87
2023/09/21 03:20:45;;;;;;;18.70;9.80;;;;;;;21.63;100.00;100962.71;105945;1257;61775;-88
2023/09/21 03:23:13;;;;;;;16.20;9.80;;;;;;;21.59;100.00;100963.17;105953;1257;73413;-86
2023/09/21 03:25:41;;;;;;;15.80;9.40;;;;;;;21.59;100.00;100962.89;106020;1259;67242;-87
2023/09/21 03:28:13;;;;;;;15.70;9.70;;;;;;;21.37;100.00;100965.48;106347;1257;72602;-85
2023/09/21 03:30:44;;;;;;;13.80;9.20;;;;;;;21.45;100.00;100960.80;106037;1257;61172;-87
2023/09/21 03:33:13;;;;;;;17.00;9.30;;;;;;;21.47;100.00;100957.04;106079;1258;61228;-87
2023/09/21 03:35:40;;;;;;;13.50;8.30;;;;;;;21.44;100.00;100956.06;105958;1257;74825;-87
2023/09/21 03:38:14;;;;;;;17.90;9.20;;;;;;;21.43;100.00;100962.71;105963;1257;67565;-86
2023/09/21 03:40:41;;;;;;;18.90;9.80;;;;;;;21.38;100.00;100965.96;105896;1257;72465;-85
2023/09/21 03:43:12;;;;;;;16.50;9.00;;;;;;;21.26;100.00;100965.51;105996;1259;61221;-87
2023/09/21 03:45:40;;;;;;;16.00;9.20;;;;;;;21.17;100.00;100966.38;106058;1256;61250;-88
2023/09/21 03:48:08;;;;;;;13.30;8.60;;;;;;;21.16;100.00;100966.96;106539;1260;72439;-87
2023/09/21 03:50:36;;;;;;;16.00;9.90;;;;;;;21.18;100.00;100971.00;105982;1262;67299;-86
2023/09/21 03:53:05;;;;;;;13.70;9.10;;;;;;;21.12;100.00;100968.62;106152;1257;72468;-87
2023/09/21 03:55:32;;;;;;;18.80;9.30;;;;;;;21.18;100.00;100971.64;105924;1262;61102;-85
2023/09/21 03:58:00;;;;;;;17.60;9.70;;;;;;;21.26;100.00;100973.77;105998;1258;61283;-87
2023/09/21 04:00:36;;;;;;;18.70;9.50;;;;;;;21.43;100.00;100977.08;105966;1257;74583;-85
2023/09/21 04:03:11;;;;;;;15.60;9.40;;;;;;;21.45;100.00;100977.94;106086;1256;68617;-86
2023/09/21 04:05:54;;;;;;;20.80;9.40;;;;;;;21.42;100.00;100980.55;105943;1257;72442;-85
2023/09/21 04:08:21;;;;;;;16.70;9.50;;;;;;;21.53;100.00;100986.58;106146;1262;61693;-87
2023/09/21 04:10:49;;;;;;;17.30;9.50;;;;;;;21.60;100.00;100983.96;106442;1257;61142;-87
2023/09/21 04:13:16;;;;;;;13.60;9.20;;;;;;;21.63;100.00;100987.91;105980;1257;74668;-87
2023/09/21 04:15:43;;;;;;;17.30;9.20;;;;;;;21.67;100.00;100991.23;105992;1258;67194;-87
2023/09/21 04:18:10;;;;;;;17.00;9.60;;;;;;;21.77;100.00;100993.80;106050;1256;73153;-86
2023/09/21 04:20:40;;;;;;;16.80;10.90;;;;;;;21.74;100.00;100992.17;105973;1256;311825;-86
2023/09/21 04:23:07;;;;;;;17.80;10.80;;;;;;;21.84;100.00;100996.75;106274;1256;61222;-86
2023/09/21 04:25:36;;;;;;;19.60;10.80;;;;;;;21.93;100.00;100998.75;105884;1256;73382;-87
2023/09/21 04:28:05;;;;;;;18.70;10.70;;;;;;;22.00;100.00;101004.77;105992;1258;68640;-87
2023/09/21 04:30:34;;;;;;;25.40;11.30;;;;;;;22.07;100.00;101004.48;106095;1257;72532;-87
2023/09/21 04:33:02;;;;;;;23.70;10.10;;;;;;;22.26;100.00;101002.63;105939;1257;61363;-86
2023/09/21 04:35:29;;;;;;;20.80;10.40;;;;;;;22.41;100.00;101003.05;106443;1257;61277;-85
2023/09/21 04:37:58;;;;;;;16.40;8.80;;;;;;;22.51;100.00;101005.77;106055;1260;74635;-87
2023/09/21 04:40:26;;;;;;;18.80;9.40;;;;;;;22.55;100.00;101008.38;106055;1256;68386;-87
2023/09/21 04:42:54;;;;;;;23.00;11.80;;;;;;;22.67;100.00;101009.48;106108;1260;71426;-86
2023/09/21 04:45:26;;;;;;;19.40;10.10;;;;;;;22.71;100.00;101013.38;105924;1260;61315;-86
2023/09/21 04:48:00;;;;;;;22.60;9.80;;;;;;;22.76;100.00;101010.42;106417;1262;60423;-86
2023/09/21 04:50:34;;;;;;;21.80;9.60;;;;;;;22.86;100.00;101001.83;105893;1263;74696;-86
2023/09/21 04:53:01;;;;;;;18.10;9.90;;;;;;;22.92;100.00;101003.04;105934;1259;69436;-88
2023/09/21 04:55:31;;;;;;;18.50;9.80;;;;;;;23.05;100.00;101002.52;106092;1260;72641;-87
2023/09/21 04:57:58;;;;;;;18.20;8.90;;;;;;;23.21;100.00;101003.02;106160;1256;61403;-87
2023/09/21 05:00:25;;;;;;;19.90;9.50;;;;;;;23.35;100.00;101002.77;106330;1260;61287;-87
2023/09/21 05:03:37;;;;;;;17.40;8.20;;;;;;;23.38;99.94;101002.88;106047;1259;74675;-86
2023/09/21 05:06:44;;;;;;;18.10;8.50;;;;;;;23.56;98.04;101005.46;106111;1257;68003;-87
2023/09/21 05:09:56;;;;;;;15.20;8.00;;;;;;;23.76;93.78;101005.98;106060;1260;71495;-87
2023/09/21 05:13:07;;;;;;;19.30;8.80;;;;;;;24.00;91.82;101002.48;105948;1257;61262;-86
2023/09/21 05:16:18;;;;;;;19.60;8.20;;;;;;;24.11;89.18;101008.05;106037;1264;60212;-87
2023/09/21 05:19:30;;;;;;;12.70;7.20;;;;;;;24.35;85.66;101012.45;106062;1258;72806;-87
2023/09/21 05:22:40;;;;;;;17.10;7.70;;;;;;;24.64;80.65;101012.95;105924;1258;68728;-87
2023/09/21 05:25:45;;;;;;;16.40;6.80;;;;;;;24.87;76.38;101012.47;106174;1257;72618;-88
2023/09/21 05:28:56;;;;;;;18.10;7.40;;;;;;;24.84;76.18;101014.23;106093;1258;61260;-87
2023/09/21 05:32:07;;;;;;;12.00;7.70;;;;;;;25.09;73.31;101013.61;106128;1258;61216;-86
2023/09/21 05:35:16;;;;;;;14.00;6.90;;;;;;;25.45;70.99;101014.75;106034;1261;66021;-86
2023/09/21 05:38:37;;;;;;;13.10;6.60;;;;;;;25.80;69.07;101015.65;106023;1257;61414;-87
2023/09/21 05:41:46;;;;;;;13.10;7.30;;;;;;;26.15;66.82;101018.40;106109;1257;63985;-87
2023/09/21 05:44:58;;;;;;;13.40;6.00;;;;;;;26.42;63.88;101015.92;106345;1258;61274;-87
2023/09/21 05:48:15;;;;;;;9.10;5.80;;;;;;;26.52;62.87;101014.25;106166;1257;61251;-86
2023/09/21 05:51:22;;;;;;;8.00;5.50;;;;;;;26.78;61.24;101014.38;106230;1257;65871;-87
2023/09/21 05:54:28;;;;;;;9.60;6.10;;;;;;;27.08;58.86;101019.56;106025;1259;61379;-87
2023/09/21 05:57:33;;;;;;;13.80;6.20;;;;;;;27.31;57.23;101022.31;106254;1257;63949;-87
2023/09/21 06:00:44;;;;;;;11.60;5.00;;;;;;;27.53;55.91;101027.57;106002;1257;61289;-86
2023/09/21 06:03:56;;;;;;;10.20;5.10;;;;;;;27.68;55.26;101027.51;105993;1259;61328;-88
2023/09/21 06:07:01;;;;;;;8.20;5.10;;;;;;;27.91;54.45;101027.95;106496;1257;64627;-88
2023/09/21 06:10:12;;;;;;;8.60;4.70;;;;;;;28.05;54.31;101026.12;106054;1257;61392;-89
2023/09/21 06:13:25;;;;;;;16.40;5.40;;;;;;;28.37;54.07;101030.93;106072;1258;63913;-87
2023/09/21 06:16:36;;;;;;;16.50;4.90;;;;;;;28.86;52.27;101030.95;106085;1262;61327;-86
2023/09/21 10:08:39;;;;;;;7.40;4.30;;;;;;;33.62;37.35;101018.54;106223;1262;61149;-89
2023/09/21 10:11:07;;;;;;;6.20;3.80;;;;;;;33.74;36.34;101018.95;105947;1257;61141;-90
2023/09/21 10:14:00;;;;;;;9.20;3.60;;;;;;;33.86;36.10;101012.80;105913;1256;65939;-91
2023/09/21 10:16:27;;;;;;;6.60;3.90;;;;;;;33.93;35.51;101015.85;106024;1257;61354;-88
2023/09/21 10:18:58;;;;;;;8.90;3.20;;;;;;;33.92;35.25;101012.71;106089;1262;64079;-91
2023/09/21 10:21:31;;;;;;;5.10;3.40;;;;;;;34.12;35.40;101005.95;106056;1257;61239;-91
2023/09/21 10:24:04;;;;;;;8.10;3.90;;;;;;;34.43;34.99;101001.23;106027;1259;61395;-88
2023/09/21 10:26:40;;;;;;;6.40;3.60;;;;;;;34.61;34.76;100999.40;105956;1260;65927;-88
2023/09/21 10:29:08;;;;;;;5.40;3.40;;;;;;;34.63;33.38;100997.77;105955;1260;61343;-87
2023/09/21 10:31:38;;;;;;;6.90;4.00;;;;;;;34.40;33.87;100997.40;105901;1263;64190;-88
2023/09/21 10:34:07;;;;;;;7.30;3.70;;;;;;;34.24;33.93;100998.80;105980;1261;61333;-88
2023/09/21 10:36:37;;;;;;;4.90;3.80;;;;;;;34.05;34.03;100992.35;106322;1260;61193;-88
2023/09/21 10:39:13;;;;;;;8.10;3.50;;;;;;;33.80;33.76;100989.70;106034;1260;66040;-88
2023/09/21 10:41:43;;;;;;;8.60;3.80;;;;;;;33.63;33.52;100991.08;106006;1260;61377;-89
2023/09/21 10:44:11;;;;;;;5.90;3.50;;;;;;;33.51;33.18;100989.52;105986;1260;65253;-89
2023/09/21 10:46:38;;;;;;;6.80;3.30;;;;;;;33.50;32.42;100984.29;106056;1258;61237;-86
2023/09/21 10:49:09;;;;;;;11.20;4.20;;;;;;;33.59;32.02;100984.83;106011;1258;61149;-87
2023/09/21 10:51:39;;;;;;;6.90;3.50;;;;;;;33.60;31.65;100980.36;106088;1261;66851;-88
2023/09/21 10:54:07;;;;;;;7.20;3.60;;;;;;;33.60;31.20;100977.20;105958;1257;61226;-87
2023/09/21 10:56:37;;;;;;;9.30;4.20;;;;;;;33.50;31.28;100980.55;105998;1265;63911;-86
2023/09/21 10:59:06;;;;;;;8.10;3.80;;;;;;;33.48;30.79;100979.28;105947;1260;61254;-87
2023/09/21 11:01:35;;;;;;;9.60;4.10;;;;;;;33.32;30.38;100977.46;106558;1259;61386;-86
2023/09/21 11:04:03;;;;;;;6.10;3.50;;;;;;;33.28;30.15;100974.19;106051;1259;66167;-87
2023/09/21 11:06:30;;;;;;;31.10;5.90;;;;;;;33.20;29.64;100975.83;106012;1262;70066;-87
2023/09/21 11:08:59;;;;;;;9.90;4.00;;;;;;;33.18;29.91;100973.50;105959;1260;65126;-90
2023/09/21 11:11:26;;;;;;;9.50;3.70;;;;;;;33.19;30.03;100966.61;105972;1260;61266;-87
2023/09/21 11:13:53;;;;;;;17.20;5.00;;;;;;;33.16;30.47;100964.96;105886;1259;61283;-86
2023/09/21 11:16:21;;;;;;;11.30;4.80;;;;;;;33.15;30.55;100963.09;106084;1261;64811;-86
2023/09/21 11:18:50;;;;;;;7.60;3.80;;;;;;;33.23;30.64;100963.88;106086;1261;61328;-89
2023/09/21 11:21:17;;;;;;;17.60;7.20;;;;;;;33.24;30.25;100960.80;106124;1259;64026;-90
2023/09/21 11:23:44;;;;;;;12.10;5.50;;;;;;;33.13;30.72;100959.91;106033;1259;61316;-90
2023/09/21 11:26:14;;;;;;;10.20;4.50;;;;;;;33.06;30.95;100962.23;106147;1260;61219;-85
2023/09/21 11:28:42;;;;;;;14.10;5.50;;;;;;;33.05;30.97;100962.58;106070;1258;67037;-86
2023/09/21 11:31:12;;;;;;;10.90;4.60;;;;;;;33.04;31.04;100963.46;106043;1263;61343;-88
2023/09/21 11:33:40;;;;;;;10.90;4.40;;;;;;;33.06;31.12;100964.51;106370;1257;65004;-86
2023/09/21 11:36:08;;;;;;;5.90;3.70;;;;;;;33.03;31.43;100959.52;106161;1260;61342;-87
2023/09/21 11:38:36;;;;;;;4.40;3.40;;;;;;;33.03;30.57;100955.95;106364;1260;61248;-90
2023/09/21 11:41:04;;;;;;;5.40;3.30;;;;;;;32.99;29.44;100951.53;106028;1262;66007;-89
2023/09/21 11:43:31;;;;;;;5.80;3.30;;;;;;;32.94;29.44;100952.40;105976;1260;61254;-87
2023/09/21 11:46:03;;;;;;;9.50;4.00;;;;;;;32.87;30.07;100950.92;105961;1259;64805;-88
2023/09/21 11:48:32;;;;;;;8.70;4.00;;;;;;;32.84;29.80;100951.14;105899;1257;61256;-87
2023/09/21 11:51:04;;;;;;;8.90;3.60;;;;;;;32.79;29.49;100954.02;106036;1259;61282;-87
2023/09/21 11:53:31;;;;;;;14.60;7.20;;;;;;;32.83;29.13;100949.30;105993;1263;67150;-85
2023/09/21 11:55:59;;;;;;;10.10;5.20;;;;;;;32.86;29.04;100950.14;106076;1261;61266;-87
2023/09/21 11:58:29;;;;;;;8.00;4.50;;;;;;;32.83;28.58;100949.13;105935;1262;65078;-87
2023/09/21 12:03:33;;;;;;;5.80;4.00;;;;;;;32.76;28.96;100954.61;106152;1262;61244;-89
2023/09/21 12:06:03;;;;;;;9.10;3.90;;;;;;;32.71;29.19;100954.42;106045;1262;66754;-89
2023/09/21 12:08:31;;;;;;;6.00;3.80;;;;;;;32.68;28.72;100956.08;106787;1258;61109;-86
2023/09/21 12:10:59;;;;;;;8.40;3.70;;;;;;;32.67;28.35;100951.55;106074;1261;65232;-89
2023/09/21 12:13:29;;;;;;;10.80;4.90;;;;;;;32.68;28.96;100952.27;106748;1261;61311;-90
2023/09/21 12:15:56;;;;;;;6.40;3.70;;;;;;;32.68;29.24;100951.55;105952;1260;61343;-88
2023/09/21 12:18:28;;;;;;;5.80;3.80;;;;;;;32.67;28.94;100950.98;105906;1263;64873;-87
2023/09/21 12:21:00;;;;;;;7.20;4.70;;;;;;;32.63;28.98;100951.61;105879;1261;61259;-86
2023/09/21 12:23:27;;;;;;;5.90;3.70;;;;;;;32.66;29.11;100950.11;105936;1262;64306;-88
2023/09/21 12:25:54;;;;;;;7.80;4.00;;;;;;;32.72;28.75;100948.75;106227;1260;61210;-88
2023/09/21 12:28:22;;;;;;;7.80;3.90;;;;;;;32.73;28.35;100943.41;105905;1262;61227;-88
2023/09/21 12:30:51;;;;;;;4.70;3.50;;;;;;;32.74;28.60;100943.48;105920;1263;65926;-89
2023/09/21 12:33:19;;;;;;;3.90;3.40;;;;;;;32.82;28.63;100939.85;105863;1262;61356;-87
2023/09/21 12:36:07;;;;;;;4.40;3.40;;;;;;;32.87;28.54;100936.55;105951;1262;65373;-88
2023/09/21 12:38:34;;;;;;;8.40;4.30;;;;;;;32.91;28.15;100938.29;106370;1257;61260;-86
2023/09/21 12:41:03;;;;;;;6.30;3.60;;;;;;;32.90;27.96;100935.22;105815;1261;61269;-89
2023/09/21 12:43:30;;;;;;;7.20;4.40;;;;;;;32.87;27.95;100936.30;105867;1259;67296;-89
2023/09/21 12:45:58;;;;;;;8.40;4.10;;;;;;;32.86;28.02;100932.68;105874;1262;61365;-89
2023/09/21 12:48:26;;;;;;;4.70;3.60;;;;;;;32.81;28.32;100928.27;106012;1263;63951;-88
2023/09/21 12:50:53;;;;;;;10.80;4.50;;;;;;;32.78;28.61;100928.48;106302;1263;61238;-89
2023/09/21 12:53:20;;;;;;;7.80;4.00;;;;;;;32.77;28.79;100930.67;105988;1259;61237;-88
2023/09/21 12:55:56;;;;;;;6.50;3.60;;;;;;;32.75;28.78;100931.42;106003;1262;66027;-91
2023/09/21 12:58:29;;;;;;;8.10;3.90;;;;;;;32.79;28.52;100928.73;105942;1262;61351;-89
2023/09/21 13:00:57;;;;;;;6.70;3.80;;;;;;;32.80;28.58;100927.50;105907;1259;65123;-88
2023/09/21 13:03:26;;;;;;;8.10;3.90;;;;;;;32.79;28.75;100927.67;106221;1258;61240;-89
2023/09/21 13:05:53;;;;;;;5.90;3.70;;;;;;;32.78;28.89;100927.60;105963;1262;61343;-89
2023/09/21 13:08:21;;;;;;;5.50;3.40;;;;;;;32.74;29.10;100927.40;106112;1258;65814;-89
2023/09/21 13:10:52;;;;;;;15.60;4.60;;;;;;;32.70;29.00;100924.62;106335;1262;61357;-87
2023/09/21 13:13:19;;;;;;;6.20;3.60;;;;;;;32.65;28.85;100919.89;106044;1260;62796;-87
2023/09/21 13:15:46;;;;;;;5.40;3.70;;;;;;;32.60;28.80;100920.52;106387;1262;60374;-86
2023/09/21 13:18:15;;;;;;;10.00;3.80;;;;;;;32.57;28.82;100920.95;106116;1263;61241;-88
2023/09/21 13:20:42;;;;;;;4.80;3.40;;;;;;;32.57;29.10;100921.02;105971;1260;65705;-89
2023/09/21 13:23:09;;;;;;;8.00;3.60;;;;;;;32.47;28.69;100922.54;105874;1263;61112;-87
2023/09/21 13:25:36;;;;;;;5.60;3.70;;;;;;;32.35;28.75;100921.37;105964;1261;63855;-88
2023/09/21 13:28:04;;;;;;;7.40;4.10;;;;;;;32.31;28.92;100918.34;105984;1263;61932;-89
2023/09/21 13:30:32;;;;;;;6.70;3.50;;;;;;;32.27;28.78;100916.19;106450;1257;61136;-87
2023/09/21 13:33:00;;;;;;;11.80;4.10;;;;;;;32.20;28.58;100914.95;105806;1258;65770;-88
2023/09/21 13:35:29;;;;;;;5.60;3.80;;;;;;;32.21;28.66;100913.58;106012;1257;61343;-88
2023/09/21 13:37:56;;;;;;;5.60;3.80;;;;;;;32.17;28.57;100911.68;106024;1260;63871;-88
2023/09/21 13:40:23;;;;;;;7.00;3.50;;;;;;;32.15;28.88;100909.27;106077;1263;61279;-88
2023/09/21 13:42:51;;;;;;;6.10;3.80;;;;;;;32.17;29.08;100904.09;106118;1258;61257;-89
2023/09/21 13:45:18;;;;;;;58.50;10.50;;;;;;;32.13;29.03;100901.69;105965;1261;66011;-88
2023/09/21 13:47:46;;;;;;;6.80;3.80;;;;;;;32.09;29.12;100906.02;106023;1263;61210;-88
2023/09/21 13:50:13;;;;;;;5.60;3.90;;;;;;;32.02;29.07;100909.85;105993;1262;64926;-88
2023/09/21 13:52:42;;;;;;;4.80;3.80;;;;;;;31.93;28.66;100908.05;106409;1258;61743;-88
2023/09/21 13:55:10;;;;;;;6.90;4.20;;;;;;;31.85;28.53;100904.55;106364;1262;61189;-88
2023/09/21 13:57:46;;;;;;;8.40;4.40;;;;;;;31.80;28.52;100905.23;105881;1259;66092;-88
2023/09/21 14:00:14;;;;;;;8.10;4.30;;;;;;;31.74;28.53;100908.34;105886;1258;61370;-88
2023/09/21 14:02:48;;;;;;;6.60;3.90;;;;;;;31.72;28.58;100907.22;105911;1263;64038;-87
2023/09/21 14:05:18;;;;;;;7.80;4.00;;;;;;;31.70;28.54;100904.73;105932;1257;61374;-86
2023/09/21 14:07:46;;;;;;;6.80;4.60;;;;;;;31.65;28.56;100907.20;106037;1262;61254;-86
2023/09/21 14:10:14;;;;;;;6.10;4.30;;;;;;;31.58;28.87;100905.63;106231;1257;67074;-87
2023/09/21 14:12:42;;;;;;;5.20;3.80;;;;;;;31.52;28.93;100904.20;106109;1263;61346;-88
2023/09/21 14:15:09;;;;;;;8.40;4.10;;;;;;;31.49;28.75;100905.67;106542;1263;62555;-87
2023/09/21 14:17:39;;;;;;;13.10;4.40;;;;;;;31.45;28.85;100905.29;106327;1260;61226;-88
2023/09/21 14:20:07;;;;;;;27.60;6.70;;;;;;;31.42;28.89;100900.38;106147;1262;61241;-86
2023/09/21 14:22:37;;;;;;;471.00;60.50;;;;;;;31.37;28.96;100899.42;106166;1258;66851;-88
2023/09/21 14:25:16;;;;;;;972.00;126.00;;;;;;;31.27;29.16;100901.09;105979;1260;61478;-89
2023/09/21 14:27:43;;;;;;;41.00;12.30;;;;;;;31.23;29.53;100903.29;105982;1258;64131;-87
2023/09/21 14:30:15;;;;;;;7.80;4.60;;;;;;;31.04;29.91;100898.86;106018;1271;61231;-86
2023/09/21 14:32:44;;;;;;;9.70;4.00;;;;;;;30.97;29.93;100901.46;105889;1257;61224;-86
2023/09/21 14:35:11;;;;;;;10.80;4.60;;;;;;;30.87;29.80;100902.47;106252;1257;66055;-87
2023/09/21 14:37:38;;;;;;;6.30;4.00;;;;;;;30.77;30.11;100901.91;105849;1257;61417;-86
2023/09/21 14:40:09;;;;;;;6.30;3.90;;;;;;;30.68;30.11;100902.73;105973;1262;64057;-86
2023/09/21 14:42:36;;;;;;;9.40;4.70;;;;;;;30.59;30.26;100906.86;105936;1262;61243;-86
2023/09/21 14:45:05;;;;;;;9.50;4.40;;;;;;;30.53;30.27;100907.19;106010;1260;61254;-87
2023/09/21 14:47:33;;;;;;;14.60;5.00;;;;;;;30.46;30.18;100911.80;106266;1257;66140;-86
2023/09/21 14:50:00;;;;;;;10.70;4.90;;;;;;;30.38;30.14;100907.86;105877;1257;61345;-86
2023/09/21 14:52:27;;;;;;;13.40;4.80;;;;;;;30.35;30.33;100909.79;106142;1257;64921;-86
2023/09/21 14:54:55;;;;;;;10.40;4.40;;;;;;;30.26;30.49;100909.23;106006;1257;61263;-85
2023/09/21 14:57:24;;;;;;;7.30;4.50;;;;;;;30.15;30.49;100912.91;106193;1257;61321;-87
2023/09/21 14:59:51;;;;;;;9.50;4.70;;;;;;;30.04;30.63;100914.44;105992;1257;66136;-87
2023/09/21 15:02:18;;;;;;;8.60;4.80;;;;;;;30.02;30.61;100913.32;106221;1258;67533;-86
2023/09/21 15:04:45;;;;;;;8.60;5.20;;;;;;;30.00;30.64;100915.33;105923;1261;64005;-87
2023/09/21 15:07:13;;;;;;;9.20;4.40;;;;;;;29.95;30.77;100913.06;106145;1261;61265;-88
2023/09/21 15:09:45;;;;;;;6.10;3.50;;;;;;;29.87;30.84;100912.02;105942;1258;61257;-87
2023/09/21 15:12:13;;;;;;;7.20;4.50;;;;;;;29.72;31.05;100909.42;105824;1259;64843;-87
2023/09/21 15:14:41;;;;;;;10.50;4.30;;;;;;;29.58;31.12;100907.84;105968;1257;61319;-87
2023/09/21 15:17:08;;;;;;;7.10;4.10;;;;;;;29.46;30.98;100905.23;106169;1258;62493;-87
2023/09/21 15:19:36;;;;;;;8.00;4.50;;;;;;;29.36;31.28;100906.64;107238;1257;61371;-87
2023/09/21 15:22:03;;;;;;;7.50;4.20;;;;;;;29.23;31.21;100904.83;105919;1257;61455;-87
2023/09/21 15:24:30;;;;;;;13.90;5.00;;;;;;;29.07;31.35;100905.48;106008;1257;67014;-87
2023/09/21 15:26:57;;;;;;;13.10;5.60;;;;;;;28.92;31.44;100907.00;106004;1257;61343;-88